Time;durP1;ratioP1;P1;durP2;ratioP2;P2;SDS_P1;SDS_P2;PMS_P1;PMS_P2;Temp;Humidity;BMP_temperature;BMP_pressure;BME280_temperature;BME280_humidity;BME280_pressure;Samples;Min_cycle;Max_cycle;Signal;HPM_P1;HPM_P2
2023/08/13 00:02:09;;;;;;;7.15;3.13;;;15.60;99.90;;;;;;5100405;27;20043;-70
2023/08/13 00:04:35;;;;;;;9.95;3.55;;;15.60;99.90;;;;;;5119746;27;20039;-69
2023/08/13 00:07:01;;;;;;;5.38;4.07;;;15.60;99.90;;;;;;5119394;27;20151;-69
2023/08/13 00:09:27;;;;;;;10.77;4.22;;;15.60;99.90;;;;;;5125255;27;20031;-71
2023/08/13 00:11:56;;;;;;;11.77;3.60;;;15.60;99.90;;;;;;5119481;27;20163;-71
2023/08/13 00:14:21;;;;;;;5.38;3.20;;;15.60;99.90;;;;;;5127402;27;20566;-70
2023/08/13 00:16:47;;;;;;;7.50;3.13;;;15.60;99.90;;;;;;5132949;27;20046;-74
2023/08/13 00:19:15;;;;;;;9.45;3.40;;;15.60;99.90;;;;;;5119409;27;20051;-69
2023/08/13 00:21:41;;;;;;;6.82;3.95;;;15.60;99.90;;;;;;5123251;27;20125;-70
2023/08/13 00:24:07;;;;;;;4.57;3.15;;;15.50;99.90;;;;;;5129936;27;20043;-71
2023/08/13 00:26:33;;;;;;;5.10;3.00;;;15.50;99.90;;;;;;5117678;27;20460;-72
2023/08/13 00:28:59;;;;;;;7.25;3.33;;;15.50;99.90;;;;;;5119102;27;20043;-69
2023/08/13 00:31:24;;;;;;;10.38;4.20;;;15.60;99.90;;;;;;5101643;27;20132;-75
2023/08/13 00:33:50;;;;;;;6.35;3.78;;;15.20;99.90;;;;;;5132697;27;20046;-70
2023/08/13 00:36:16;;;;;;;7.63;3.97;;;15.50;99.90;;;;;;5118811;27;20448;-70
2023/08/13 00:38:42;;;;;;;10.60;3.85;;;15.50;99.90;;;;;;5123151;27;20500;-70
2023/08/13 00:41:08;;;;;;;7.22;3.55;;;15.50;99.90;;;;;;5120685;27;20584;-71
2023/08/13 00:43:36;;;;;;;6.93;4.18;;;15.50;99.90;;;;;;5123996;27;20384;-69
2023/08/13 00:46:03;;;;;;;7.75;3.80;;;15.50;99.90;;;;;;5131713;27;20043;-69
2023/08/13 00:48:29;;;;;;;5.65;3.40;;;15.40;99.90;;;;;;5106567;27;20055;-71
2023/08/13 00:50:56;;;;;;;11.13;3.80;;;15.40;99.90;;;;;;5106357;27;20043;-71
2023/08/13 00:53:22;;;;;;;7.55;3.80;;;15.40;99.90;;;;;;5125680;27;20778;-71
2023/08/13 00:55:47;;;;;;;7.35;3.60;;;15.40;99.90;;;;;;5134985;27;20118;-70
2023/08/13 00:58:13;;;;;;;7.78;3.38;;;15.50;99.90;;;;;;5128143;27;20073;-70
2023/08/13 01:00:39;;;;;;;11.43;4.13;;;15.40;99.90;;;;;;5143228;27;20046;-68
2023/08/13 01:03:07;;;;;;;7.15;4.40;;;15.50;99.90;;;;;;5121964;27;20047;-70
2023/08/13 01:06:03;;;;;;;8.45;4.20;;;15.40;99.90;;;;;;5123810;27;20121;-70
2023/08/13 01:08:47;;;;;;;9.70;4.28;;;15.40;99.90;;;;;;5142107;27;20455;-70
2023/08/13 01:11:39;;;;;;;12.02;4.00;;;15.40;99.90;;;;;;5139552;27;20050;-69
2023/08/13 01:14:15;;;;;;;11.68;4.18;;;15.40;99.90;;;;;;5118058;27;20117;-68
2023/08/13 01:16:43;;;;;;;8.35;4.60;;;15.40;99.90;;;;;;5131163;27;20046;-71
2023/08/13 01:19:12;;;;;;;10.93;4.05;;;15.40;99.90;;;;;;5122504;27;20051;-72
2023/08/13 01:21:38;;;;;;;6.30;3.95;;;15.40;99.90;;;;;;5122733;27;20154;-70
2023/08/13 01:24:04;;;;;;;12.07;4.35;;;15.40;99.90;;;;;;5135588;27;20081;-70
2023/08/13 01:26:37;;;;;;;10.13;4.38;;;15.40;99.90;;;;;;5122868;27;20050;-70
2023/08/13 01:29:40;;;;;;;6.78;3.50;;;15.40;99.90;;;;;;5105303;27;20074;-72
2023/08/13 01:32:09;;;;;;;11.90;3.55;;;15.40;99.90;;;;;;5099412;27;20078;-71
2023/08/13 01:34:36;;;;;;;6.18;3.72;;;15.30;99.90;;;;;;5122991;27;20090;-69
2023/08/13 01:37:03;;;;;;;6.43;3.67;;;15.30;99.90;;;;;;5122387;27;20187;-73
2023/08/13 01:39:29;;;;;;;8.43;4.03;;;15.30;99.90;;;;;;5136188;27;20051;-68
2023/08/13 01:41:56;;;;;;;5.53;3.72;;;15.30;99.90;;;;;;5134408;27;20061;-74
2023/08/13 01:44:21;;;;;;;7.70;3.67;;;15.30;99.90;;;;;;5130088;27;20054;-71
2023/08/13 01:46:47;;;;;;;7.03;3.67;;;15.30;99.90;;;;;;5130223;27;20055;-70
2023/08/13 01:49:13;;;;;;;7.45;3.97;;;15.20;99.90;;;;;;5128876;27;20422;-69
2023/08/13 01:51:39;;;;;;;10.20;3.75;;;15.30;99.90;;;;;;5105875;27;20050;-70
2023/08/13 01:54:05;;;;;;;8.73;3.75;;;15.20;99.90;;;;;;5135672;27;20051;-70
2023/08/13 01:56:31;;;;;;;8.07;4.03;;;15.20;99.90;;;;;;5142179;27;20042;-69
2023/08/13 01:58:57;;;;;;;9.73;4.65;;;15.30;99.90;;;;;;5141295;27;20051;-71
2023/08/13 02:01:23;;;;;;;9.32;4.38;;;15.30;99.90;;;;;;5109287;27;20585;-71
2023/08/13 02:03:49;;;;;;;10.48;4.78;;;15.30;99.90;;;;;;5142589;27;20050;-71
2023/08/13 02:06:14;;;;;;;7.88;3.47;;;15.30;99.90;;;;;;5135972;27;20126;-70
2023/08/13 02:08:40;;;;;;;9.45;4.63;;;15.30;99.90;;;;;;5135471;27;20042;-70
2023/08/13 02:11:06;;;;;;;9.45;4.10;;;15.30;99.90;;;;;;5134566;27;20220;-72
2023/08/13 02:13:31;;;;;;;9.55;4.57;;;15.30;99.90;;;;;;5121740;27;20050;-69
2023/08/13 02:16:04;;;;;;;12.45;4.55;;;15.40;99.90;;;;;;5124512;27;20047;-69
2023/08/13 02:18:30;;;;;;;13.73;5.47;;;15.40;99.90;;;;;;5132562;27;20047;-73
2023/08/13 02:20:56;;;;;;;11.05;5.57;;;15.40;99.90;;;;;;5134793;27;20039;-69
2023/08/13 02:23:22;;;;;;;7.50;3.70;;;15.40;99.90;;;;;;5104097;27;20863;-70
2023/08/13 02:25:49;;;;;;;15.75;5.07;;;15.40;99.90;;;;;;5125456;27;20047;-72
2023/08/13 02:28:14;;;;;;;10.77;4.50;;;15.50;99.90;;;;;;5130669;27;20055;-72
2023/08/13 02:30:40;;;;;;;12.70;5.18;;;15.40;99.90;;;;;;5135671;27;20047;-68
2023/08/13 02:33:06;;;;;;;9.90;4.82;;;15.40;99.90;;;;;;5103545;27;20047;-71
2023/08/13 02:35:31;;;;;;;7.40;4.55;;;15.40;99.90;;;;;;5137789;27;20144;-70
2023/08/13 02:37:57;;;;;;;10.30;4.57;;;15.40;99.90;;;;;;5132375;27;20180;-70
2023/08/13 02:40:23;;;;;;;7.88;4.18;;;15.40;99.90;;;;;;5139391;27;20039;-70
2023/08/13 02:42:48;;;;;;;9.85;4.88;;;15.40;99.90;;;;;;5142984;27;20077;-69
2023/08/13 02:45:14;;;;;;;7.88;4.00;;;15.30;99.90;;;;;;5109684;27;20046;-72
2023/08/13 02:47:40;;;;;;;12.15;4.90;;;15.40;99.90;;;;;;5129756;27;20054;-70
2023/08/13 02:50:06;;;;;;;8.80;4.18;;;15.30;99.90;;;;;;5125961;27;20142;-71
2023/08/13 02:52:32;;;;;;;9.05;4.07;;;15.30;99.90;;;;;;5096007;27;20055;-69
2023/08/13 02:54:58;;;;;;;11.13;4.80;;;15.30;99.90;;;;;;5108494;27;20038;-70
2023/08/13 02:57:23;;;;;;;7.22;3.80;;;15.30;99.90;;;;;;5130727;27;20055;-69
2023/08/13 02:59:49;;;;;;;12.20;4.68;;;15.30;99.90;;;;;;5121967;27;20367;-71
2023/08/13 03:02:16;;;;;;;11.43;4.70;;;15.30;99.90;;;;;;5104110;27;20175;-70
2023/08/13 03:04:42;;;;;;;8.82;4.18;;;15.20;99.90;;;;;;5127344;27;20093;-69
2023/08/13 03:07:08;;;;;;;6.47;4.47;;;15.30;99.90;;;;;;5128410;27;20502;-70
2023/08/13 03:09:33;;;;;;;9.88;5.07;;;15.30;99.90;;;;;;5133314;27;20753;-69
2023/08/13 03:11:59;;;;;;;10.73;4.20;;;15.20;99.90;;;;;;5123374;27;20063;-71
2023/08/13 03:14:25;;;;;;;11.35;4.35;;;15.20;99.90;;;;;;5125016;27;20428;-70
2023/08/13 03:16:50;;;;;;;14.25;4.97;;;15.20;99.90;;;;;;5134329;27;20126;-71
2023/08/13 03:19:16;;;;;;;13.73;4.30;;;15.20;99.90;;;;;;5139055;27;20054;-69
2023/08/13 03:21:42;;;;;;;9.98;5.10;;;15.20;99.90;;;;;;5125766;27;20578;-71
2023/08/13 03:24:07;;;;;;;8.85;5.47;;;15.20;99.90;;;;;;5134102;27;20082;-69
2023/08/13 03:26:33;;;;;;;8.82;4.63;;;15.20;99.90;;;;;;5102611;27;20043;-69
2023/08/13 03:28:59;;;;;;;9.73;4.70;;;15.10;99.90;;;;;;5120169;27;20130;-70
2023/08/13 03:31:24;;;;;;;6.32;3.70;;;15.10;99.90;;;;;;5127958;27;20054;-71
2023/08/13 03:33:50;;;;;;;14.10;5.45;;;15.10;99.90;;;;;;5123946;27;20082;-70
2023/08/13 03:36:16;;;;;;;10.30;4.40;;;15.20;99.90;;;;;;5127824;27;20795;-75
2023/08/13 03:38:41;;;;;;;11.80;4.85;;;15.10;99.90;;;;;;5121119;27;20058;-75
2023/08/13 03:41:07;;;;;;;11.48;4.68;;;15.10;99.90;;;;;;5135388;27;20039;-69
2023/08/13 03:43:33;;;;;;;10.55;4.78;;;15.10;99.90;;;;;;5121660;27;20519;-72
2023/08/13 03:45:58;;;;;;;7.05;4.35;;;15.10;99.90;;;;;;5128904;27;20531;-70
2023/08/13 03:48:24;;;;;;;11.88;5.55;;;15.00;99.90;;;;;;5122725;27;20567;-71
2023/08/13 03:50:50;;;;;;;11.57;4.40;;;15.00;99.90;;;;;;5128394;27;20083;-72
2023/08/13 03:53:15;;;;;;;8.90;4.53;;;15.00;99.90;;;;;;5122872;27;20051;-69
2023/08/13 03:55:41;;;;;;;10.55;4.55;;;15.00;99.90;;;;;;5122963;27;20043;-75
2023/08/13 03:58:07;;;;;;;14.43;4.53;;;15.00;99.90;;;;;;5121285;27;20043;-70
2023/08/13 04:00:32;;;;;;;11.48;4.70;;;14.90;99.90;;;;;;5133985;27;20053;-72
2023/08/13 04:02:58;;;;;;;8.00;4.63;;;14.90;99.90;;;;;;5110483;27;20063;-71
2023/08/13 04:05:24;;;;;;;10.90;5.22;;;14.90;99.90;;;;;;5129019;27;20070;-72
2023/08/13 04:07:49;;;;;;;10.15;4.93;;;14.90;99.90;;;;;;5129807;27;20051;-71
2023/08/13 04:10:15;;;;;;;10.85;4.63;;;14.90;99.90;;;;;;5133647;27;20082;-70
2023/08/13 04:12:41;;;;;;;16.92;5.25;;;14.90;99.90;;;;;;5127244;27;20045;-70
2023/08/13 04:15:07;;;;;;;8.10;4.55;;;14.90;99.90;;;;;;5141814;27;20042;-70
2023/08/13 04:17:33;;;;;;;9.77;5.00;;;14.90;99.90;;;;;;5130424;27;20057;-72
2023/08/13 04:19:58;;;;;;;7.30;4.38;;;15.00;99.90;;;;;;5110479;27;20061;-70
2023/08/13 04:22:24;;;;;;;10.82;5.22;;;15.00;99.90;;;;;;5120069;27;20669;-72
2023/08/13 04:24:50;;;;;;;10.57;4.70;;;15.00;99.90;;;;;;5133804;27;20050;-72
2023/08/13 04:27:19;;;;;;;16.05;6.30;;;15.10;99.90;;;;;;5130943;27;20049;-70
2023/08/13 04:29:45;;;;;;;11.70;4.63;;;15.10;99.90;;;;;;5125774;27;20043;-72
2023/08/13 04:32:10;;;;;;;8.70;4.40;;;15.20;99.90;;;;;;5101336;27;20062;-71
2023/08/13 04:34:36;;;;;;;10.68;6.25;;;15.20;99.90;;;;;;5132472;27;20544;-70
2023/08/13 04:37:02;;;;;;;12.82;5.28;;;15.20;99.90;;;;;;5132580;27;20080;-69
2023/08/13 04:39:28;;;;;;;17.30;4.78;;;15.30;99.90;;;;;;5144840;27;20073;-72
2023/08/13 04:41:59;;;;;;;15.30;5.85;;;15.40;99.90;;;;;;5124675;27;20398;-71
2023/08/13 04:44:24;;;;;;;11.50;5.32;;;15.40;99.90;;;;;;5126147;27;20126;-72
2023/08/13 04:46:50;;;;;;;10.20;5.25;;;15.50;99.90;;;;;;5138096;27;20529;-71
2023/08/13 04:49:16;;;;;;;8.43;4.97;;;15.50;99.90;;;;;;5132414;27;20051;-70
2023/08/13 04:51:41;;;;;;;9.98;4.82;;;15.60;99.90;;;;;;5108487;27;20053;-70
2023/08/13 04:54:07;;;;;;;9.52;4.72;;;15.60;99.90;;;;;;5133157;27;20046;-69
2023/08/13 04:56:32;;;;;;;7.35;4.95;;;15.60;99.90;;;;;;5130301;27;20129;-71
2023/08/13 04:58:58;;;;;;;9.32;5.18;;;15.70;99.90;;;;;;5132141;27;20788;-72
2023/08/13 05:01:24;;;;;;;13.30;5.05;;;15.70;99.90;;;;;;5112357;27;20035;-71
2023/08/13 05:03:50;;;;;;;12.82;5.80;;;15.80;99.90;;;;;;5144577;27;20084;-71
2023/08/13 05:06:15;;;;;;;10.63;4.75;;;15.80;99.90;;;;;;5137967;27;20384;-69
2023/08/13 05:08:41;;;;;;;12.50;4.93;;;15.90;99.90;;;;;;5138375;27;20154;-70
2023/08/13 05:11:07;;;;;;;13.75;5.13;;;15.90;99.90;;;;;;5107027;27;20081;-70
2023/08/13 05:13:33;;;;;;;9.73;4.82;;;15.90;99.90;;;;;;5128947;27;20499;-72
2023/08/13 05:15:59;;;;;;;14.68;5.35;;;16.00;99.90;;;;;;5124765;27;20047;-70
2023/08/13 05:18:24;;;;;;;8.80;4.95;;;16.10;99.90;;;;;;5129507;27;20115;-71
2023/08/13 05:20:51;;;;;;;12.57;5.57;;;16.10;99.90;;;;;;5129472;27;20039;-72
2023/08/13 05:23:17;;;;;;;7.70;5.07;;;15.40;99.90;;;;;;5124097;27;20050;-70
2023/08/13 05:25:42;;;;;;;13.02;4.85;;;16.20;99.90;;;;;;5143720;27;20786;-69
2023/08/13 05:28:08;;;;;;;13.73;5.07;;;16.30;99.90;;;;;;5112819;27;20046;-70
2023/08/13 05:30:37;;;;;;;7.90;4.38;;;16.30;99.90;;;;;;5131769;27;20050;-69
2023/08/13 05:33:03;;;;;;;8.73;5.03;;;16.30;99.90;;;;;;5112426;27;20154;-71
2023/08/13 05:35:28;;;;;;;11.10;5.05;;;16.50;99.90;;;;;;5138809;27;20057;-69
2023/08/13 05:37:54;;;;;;;9.82;5.47;;;16.50;99.90;;;;;;5144435;27;20803;-71
2023/08/13 05:40:20;;;;;;;10.85;5.30;;;16.60;99.90;;;;;;5143452;27;20115;-70
2023/08/13 05:42:47;;;;;;;12.70;5.55;;;16.70;99.90;;;;;;5132455;27;20103;-69
2023/08/13 05:45:12;;;;;;;5.47;4.38;;;16.80;99.90;;;;;;5141405;27;20831;-70
2023/08/13 05:47:38;;;;;;;9.82;4.70;;;16.90;99.90;;;;;;5110809;27;20054;-71
2023/08/13 05:50:04;;;;;;;10.20;4.68;;;17.00;99.90;;;;;;5117295;27;20027;-69
2023/08/13 05:52:30;;;;;;;8.35;5.13;;;17.00;99.90;;;;;;5137044;27;20099;-74
2023/08/13 05:54:56;;;;;;;9.90;5.30;;;17.00;99.90;;;;;;5124840;27;20146;-71
2023/08/13 05:57:22;;;;;;;6.85;4.85;;;17.10;99.90;;;;;;5128996;27;20050;-71
2023/08/13 05:59:48;;;;;;;10.95;4.88;;;17.10;99.90;;;;;;5124172;27;20690;-73
2023/08/13 06:02:13;;;;;;;9.00;4.90;;;17.20;99.90;;;;;;5121275;27;20122;-70
2023/08/13 06:04:39;;;;;;;7.68;4.70;;;17.10;99.90;;;;;;5109993;27;20043;-71
2023/08/13 06:07:05;;;;;;;13.00;5.65;;;17.20;99.90;;;;;;5110554;27;20129;-71
2023/08/13 06:09:31;;;;;;;7.80;4.57;;;17.20;99.90;;;;;;5112277;27;20043;-72
2023/08/13 06:11:57;;;;;;;9.57;4.38;;;17.20;99.90;;;;;;5132118;27;20589;-75
2023/08/13 06:14:22;;;;;;;9.52;4.05;;;17.20;99.90;;;;;;5128054;27;20047;-71
2023/08/13 06:16:48;;;;;;;6.47;4.70;;;17.20;99.90;;;;;;5142071;27;20046;-71
2023/08/13 06:19:14;;;;;;;8.77;5.22;;;17.20;99.90;;;;;;5140498;27;20479;-70
2023/08/13 06:21:39;;;;;;;13.82;5.40;;;17.30;99.90;;;;;;5131470;27;20074;-71
2023/08/13 06:24:06;;;;;;;7.82;4.95;;;17.40;99.90;;;;;;5141627;27;20130;-73
2023/08/13 06:26:32;;;;;;;9.95;4.82;;;17.40;99.90;;;;;;5124712;27;20051;-71
2023/08/13 06:28:58;;;;;;;10.23;4.18;;;17.50;99.90;;;;;;5131337;27;20851;-75
2023/08/13 06:31:24;;;;;;;13.13;5.20;;;17.50;99.90;;;;;;5130397;27;20041;-73
2023/08/13 06:33:49;;;;;;;9.50;4.72;;;17.50;99.90;;;;;;5128688;27;20129;-76
2023/08/13 06:36:15;;;;;;;9.38;4.55;;;17.60;99.90;;;;;;5128326;27;20059;-70
2023/08/13 06:38:41;;;;;;;10.93;5.53;;;17.70;99.90;;;;;;5120715;27;20768;-72
2023/08/13 06:41:06;;;;;;;11.93;5.15;;;17.80;99.90;;;;;;5136028;27;20047;-71
2023/08/13 06:43:33;;;;;;;17.02;4.68;;;17.80;99.90;;;;;;5125507;27;20130;-71
2023/08/13 06:46:00;;;;;;;12.40;5.03;;;18.00;99.90;;;;;;5108114;27;20493;-70
2023/08/13 06:48:27;;;;;;;9.77;4.63;;;18.20;99.90;;;;;;5108406;27;20122;-71
2023/08/13 06:50:57;;;;;;;9.40;4.15;;;18.50;99.90;;;;;;5120748;27;20035;-74
2023/08/13 06:53:23;;;;;;;9.23;3.78;;;18.70;99.90;;;;;;5104492;27;20054;-71
2023/08/13 06:55:50;;;;;;;9.65;4.72;;;18.90;99.90;;;;;;5129302;27;20051;-69
2023/08/13 06:58:17;;;;;;;8.90;5.15;;;19.20;99.90;;;;;;5126576;27;20228;-70
2023/08/13 07:00:43;;;;;;;10.07;3.55;;;19.30;99.90;;;;;;5102827;27;20098;-75
2023/08/13 07:03:10;;;;;;;8.45;3.78;;;19.30;99.90;;;;;;5127575;27;20093;-72
2023/08/13 07:05:36;;;;;;;9.77;4.35;;;19.90;99.90;;;;;;5132358;27;20051;-74
2023/08/13 07:08:04;;;;;;;7.50;3.95;;;20.40;99.90;;;;;;5105288;27;20049;-74
2023/08/13 07:10:29;;;;;;;10.57;4.03;;;20.60;99.90;;;;;;5130893;27;20126;-74
2023/08/13 07:12:55;;;;;;;6.30;3.00;;;21.30;99.90;;;;;;5119915;27;20363;-73
2023/08/13 07:15:21;;;;;;;8.43;4.55;;;22.40;99.90;;;;;;5102764;27;20108;-76
2023/08/13 07:17:46;;;;;;;6.75;3.50;;;23.30;99.90;;;;;;5134572;27;20570;-74
2023/08/13 07:20:14;;;;;;;6.30;3.78;;;24.10;99.90;;;;;;5139598;27;20888;-75
2023/08/13 07:22:42;;;;;;;9.35;4.18;;;24.60;99.90;;;;;;5127174;27;20855;-73
2023/08/13 07:25:09;;;;;;;8.55;3.47;;;25.10;99.90;;;;;;5130978;27;20061;-74
2023/08/13 07:27:35;;;;;;;8.43;3.40;;;25.40;99.90;;;;;;5130688;27;20050;-74
2023/08/13 07:30:01;;;;;;;5.55;3.03;;;26.00;99.90;;;;;;5118064;27;20047;-76
2023/08/13 07:32:28;;;;;;;10.48;3.13;;;25.00;99.90;;;;;;5132896;27;20051;-77
2023/08/13 07:34:54;;;;;;;9.10;3.40;;;24.40;99.90;;;;;;5127470;27;20051;-75
2023/08/13 07:37:21;;;;;;;7.80;3.65;;;24.50;99.90;;;;;;5129929;27;20047;-76
2023/08/13 07:39:46;;;;;;;4.47;2.67;;;24.90;99.90;;;;;;5129662;27;20042;-75
2023/08/13 07:42:12;;;;;;;6.05;2.60;;;25.60;99.90;;;;;;5124533;27;20140;-75
2023/08/13 07:44:39;;;;;;;5.88;2.63;;;26.20;99.90;;;;;;5135924;27;20055;-74
2023/08/13 07:47:05;;;;;;;7.80;2.85;;;26.60;99.90;;;;;;5138340;27;20045;-75
2023/08/13 07:49:31;;;;;;;5.80;3.83;;;27.30;99.90;;;;;;5133253;27;20074;-75
2023/08/13 07:51:57;;;;;;;7.47;3.03;;;27.80;99.90;;;;;;5103324;27;20054;-75
2023/08/13 07:54:23;;;;;;;7.32;2.60;;;28.20;99.90;;;;;;5127469;27;20058;-75
2023/08/13 07:56:49;;;;;;;8.95;2.85;;;28.10;99.90;;;;;;5134574;27;20068;-75
2023/08/13 07:59:15;;;;;;;5.43;2.53;;;28.00;99.90;;;;;;5127688;27;20047;-74
2023/08/13 08:01:43;;;;;;;7.40;2.90;;;27.40;99.90;;;;;;5140943;27;20039;-74
2023/08/13 08:04:09;;;;;;;6.25;3.00;;;26.70;99.90;;;;;;5127877;27;20054;-75
2023/08/13 08:06:34;;;;;;;5.78;2.80;;;26.30;99.90;;;;;;5134553;27;20051;-74
2023/08/13 08:09:00;;;;;;;3.85;2.95;;;26.40;99.90;;;;;;5139652;27;20074;-75
2023/08/13 08:11:26;;;;;;;4.47;2.58;;;26.00;99.50;;;;;;5094970;27;20039;-74
2023/08/13 08:13:52;;;;;;;6.53;2.85;;;25.60;99.90;;;;;;5123900;27;20042;-74
2023/08/13 08:16:18;;;;;;;6.75;3.05;;;25.60;99.90;;;;;;5139021;27;20046;-75
2023/08/13 08:18:44;;;;;;;5.05;3.13;;;26.40;99.90;;;;;;5125878;27;20042;-75
2023/08/13 08:21:09;;;;;;;5.88;2.63;;;27.20;99.40;;;;;;5134031;27;20051;-75
2023/08/13 08:23:35;;;;;;;5.38;2.70;;;27.10;99.90;;;;;;5127583;27;20554;-74
2023/08/13 08:26:01;;;;;;;5.95;2.17;;;27.10;99.90;;;;;;5121478;27;20054;-74
2023/08/13 08:28:26;;;;;;;3.03;2.55;;;26.70;99.90;;;;;;5123180;27;20066;-74
2023/08/13 08:30:53;;;;;;;4.97;2.45;;;26.30;99.90;;;;;;5128161;27;20888;-74
2023/08/13 08:33:21;;;;;;;3.53;2.35;;;26.00;99.90;;;;;;5106008;27;20525;-75
2023/08/13 08:35:47;;;;;;;7.10;2.50;;;26.00;99.90;;;;;;5119343;28;20383;-74
2023/08/13 08:38:13;;;;;;;8.93;2.95;;;26.70;99.90;;;;;;5115311;27;20890;-75
2023/08/13 08:40:42;;;;;;;9.23;2.30;;;26.50;99.90;;;;;;5111780;28;20850;-75
2023/08/13 08:43:09;;;;;;;4.72;2.30;;;26.40;99.90;;;;;;5107471;27;20043;-75
2023/08/13 08:45:37;;;;;;;7.40;2.38;;;26.50;99.90;;;;;;5104916;28;20772;-74
2023/08/13 08:48:05;;;;;;;6.65;2.60;;;27.00;99.60;;;;;;5115679;28;20047;-75
2023/08/13 08:50:31;;;;;;;4.95;1.90;;;27.20;99.60;;;;;;5109908;28;20047;-75
2023/08/13 08:52:57;;;;;;;5.90;2.28;;;27.10;99.70;;;;;;5101223;28;20047;-74
2023/08/13 08:55:23;;;;;;;7.30;2.30;;;27.20;99.60;;;;;;5111422;28;20043;-74
2023/08/13 08:57:49;;;;;;;7.25;1.65;;;27.50;99.10;;;;;;5099865;28;20040;-74
2023/08/13 09:00:15;;;;;;;2.97;1.90;;;27.70;98.50;;;;;;5100292;28;20091;-74
2023/08/13 09:02:43;;;;;;;6.97;2.03;;;28.00;98.30;;;;;;5116690;28;20484;-74
2023/08/13 09:05:09;;;;;;;5.22;1.98;;;28.20;97.00;;;;;;5118930;27;20059;-74
2023/08/13 09:07:34;;;;;;;3.45;2.20;;;28.50;97.80;;;;;;5118927;27;20040;-74
2023/08/13 09:10:04;;;;;;;4.78;1.83;;;28.80;97.60;;;;;;5114037;27;20051;-75
2023/08/13 09:12:37;;;;;;;6.57;2.10;;;28.70;96.20;;;;;;5110662;27;20050;-75
2023/08/13 09:15:09;;;;;;;3.88;2.10;;;28.80;94.90;;;;;;5103344;27;20138;-74
2023/08/13 09:17:35;;;;;;;3.05;1.70;;;28.50;95.70;;;;;;5110499;27;20086;-74
2023/08/13 09:20:18;;;;;;;2.90;1.83;;;28.50;97.00;;;;;;5110392;27;20131;-74
2023/08/13 09:22:48;;;;;;;3.72;2.17;;;28.40;95.00;;;;;;5112883;27;20058;-74
2023/08/13 09:25:14;;;;;;;5.35;1.63;;;28.10;96.10;;;;;;5109517;27;20081;-74
2023/08/13 09:27:41;;;;;;;3.55;1.98;;;27.30;97.30;;;;;;5112215;27;20143;-74
2023/08/13 09:30:20;;;;;;;4.07;2.13;;;26.40;97.50;;;;;;5117638;27;20507;-74
2023/08/13 09:32:46;;;;;;;4.43;2.10;;;25.80;98.00;;;;;;5108114;27;20051;-74
2023/08/13 09:35:12;;;;;;;3.83;1.90;;;25.70;98.90;;;;;;5103756;27;20070;-75
2023/08/13 09:37:38;;;;;;;5.05;2.40;;;25.70;98.80;;;;;;5102592;27;20190;-74
2023/08/13 09:40:05;;;;;;;3.38;1.70;;;25.70;98.90;;;;;;5112822;27;20454;-74
2023/08/13 09:42:33;;;;;;;4.18;1.92;;;26.00;98.60;;;;;;5113711;27;20089;-75
2023/08/13 09:45:03;;;;;;;3.90;2.08;;;26.50;98.70;;;;;;5117705;27;20851;-75
2023/08/13 09:47:32;;;;;;;4.90;2.03;;;26.20;97.80;;;;;;5112309;27;20256;-74
2023/08/13 09:50:01;;;;;;;3.17;1.80;;;25.60;98.00;;;;;;5104817;27;20050;-75
2023/08/13 09:52:30;;;;;;;5.63;2.05;;;25.80;98.40;;;;;;5111156;27;20047;-74
2023/08/13 09:55:11;;;;;;;5.25;2.67;;;26.20;98.00;;;;;;5117929;27;20128;-74
2023/08/13 09:57:41;;;;;;;4.03;2.17;;;26.80;97.50;;;;;;5116962;27;20889;-72
2023/08/13 10:00:09;;;;;;;2.88;2.00;;;27.20;98.40;;;;;;5117211;27;20058;-73
2023/08/13 10:02:35;;;;;;;7.10;2.17;;;27.40;96.50;;;;;;5117093;27;20055;-73
2023/08/13 10:05:02;;;;;;;3.55;1.80;;;27.80;97.80;;;;;;5122868;27;20055;-77
2023/08/13 10:07:28;;;;;;;4.38;2.35;;;27.50;97.50;;;;;;5109651;27;20054;-79
2023/08/13 10:09:54;;;;;;;3.25;1.50;;;27.20;97.70;;;;;;5117129;27;20048;-77
2023/08/13 10:12:22;;;;;;;3.80;1.70;;;26.80;96.90;;;;;;5111819;27;20047;-75
2023/08/13 10:14:48;;;;;;;6.15;1.67;;;26.40;97.20;;;;;;5116953;27;20052;-77
2023/08/13 10:17:17;;;;;;;4.90;2.25;;;26.00;97.50;;;;;;5104784;27;20058;-74
2023/08/13 10:19:49;;;;;;;4.40;1.73;;;25.70;97.00;;;;;;5102721;27;20110;-76
2023/08/13 10:22:22;;;;;;;5.40;1.85;;;25.30;97.80;;;;;;5102955;27;20183;-76
2023/08/13 10:24:48;;;;;;;3.38;1.98;;;25.20;98.20;;;;;;5103903;27;20083;-73
2023/08/13 10:27:14;;;;;;;3.08;1.73;;;25.40;98.40;;;;;;5102715;27;20476;-75
2023/08/13 10:29:43;;;;;;;5.97;1.77;;;26.40;98.50;;;;;;5102871;27;20502;-75
2023/08/13 10:32:13;;;;;;;2.45;1.50;;;27.00;97.20;;;;;;5104809;27;20154;-75
2023/08/13 10:34:41;;;;;;;2.15;1.95;;;27.30;96.70;;;;;;5118580;27;20035;-75
2023/08/13 10:37:21;;;;;;;3.05;2.03;;;27.90;97.40;;;;;;5132309;27;20054;-74
2023/08/13 10:39:56;;;;;;;2.50;1.42;;;27.40;95.90;;;;;;5107275;27;20051;-73
2023/08/13 10:42:28;;;;;;;1.73;1.40;;;27.10;95.50;;;;;;5134503;27;20050;-76
2023/08/13 10:45:00;;;;;;;;;;;27.10;96.10;;;;;;5135078;27;20118;-74
2023/08/13 10:47:56;;;;;;;1.98;1.27;;;26.70;95.60;;;;;;5133937;27;19970;-75
2023/08/13 10:50:32;;;;;;;2.63;1.48;;;26.70;95.80;;;;;;5125101;27;20054;-74
2023/08/13 10:53:12;;;;;;;3.67;1.35;;;26.90;96.50;;;;;;5125075;27;20843;-72
2023/08/13 10:55:40;;;;;;;1.45;1.17;;;27.50;96.60;;;;;;5138460;27;20365;-74
2023/08/13 10:58:06;;;;;;;2.20;1.60;;;27.50;96.60;;;;;;5123242;27;20096;-72
2023/08/13 11:00:44;;;;;;;3.88;2.33;;;27.20;96.60;;;;;;5135903;27;20047;-76
2023/08/13 11:03:23;;;;;;;1.73;1.20;;;27.10;95.50;;;;;;5130159;27;20060;-77
2023/08/13 11:05:50;;;;;;;5.60;1.88;;;27.00;95.80;;;;;;5134926;27;20054;-74
2023/08/13 11:08:24;;;;;;;2.28;1.20;;;26.90;96.70;;;;;;5120716;27;20051;-75
2023/08/13 11:10:51;;;;;;;2.72;1.45;;;26.80;96.30;;;;;;5119832;27;20047;-74
2023/08/13 11:13:18;;;;;;;3.28;1.35;;;26.80;97.40;;;;;;5126636;27;20055;-73
2023/08/13 11:15:52;;;;;;;4.80;1.75;;;26.60;96.40;;;;;;5133067;27;20053;-78
2023/08/13 11:18:18;;;;;;;1.65;1.15;;;26.10;95.90;;;;;;5136218;27;20145;-74
2023/08/13 11:20:45;;;;;;;2.90;1.27;;;25.80;96.90;;;;;;5134842;27;20038;-73
2023/08/13 11:23:12;;;;;;;3.30;1.40;;;25.70;97.30;;;;;;5132040;27;20123;-77
2023/08/13 11:25:39;;;;;;;2.90;1.55;;;25.70;97.40;;;;;;5102562;27;20047;-75
2023/08/13 11:28:08;;;;;;;1.63;1.45;;;25.70;97.70;;;;;;5088764;27;20065;-72
2023/08/13 11:30:40;;;;;;;3.97;1.65;;;25.70;97.50;;;;;;5134263;27;20515;-73
2023/08/13 11:33:05;;;;;;;4.03;1.77;;;25.50;96.80;;;;;;5121939;27;20042;-74
2023/08/13 11:35:32;;;;;;;3.42;1.65;;;25.50;97.90;;;;;;5113601;27;20296;-76
2023/08/13 11:37:58;;;;;;;2.55;1.30;;;25.50;98.00;;;;;;5139335;27;20850;-78
2023/08/13 11:40:24;;;;;;;5.13;1.48;;;25.50;97.60;;;;;;5126046;27;20039;-75
2023/08/13 11:42:57;;;;;;;2.55;1.38;;;25.50;97.70;;;;;;5091986;27;20339;-72
2023/08/13 11:45:30;;;;;;;3.00;1.58;;;25.30;96.70;;;;;;5126950;27;20058;-75
2023/08/13 11:48:30;;;;;;;2.85;1.20;;;25.50;97.30;;;;;;5124605;27;20043;-73
2023/08/13 11:51:22;;;;;;;1.92;1.40;;;25.50;96.80;;;;;;5077313;27;20154;-76
2023/08/13 11:53:50;;;;;;;2.80;1.30;;;25.50;97.70;;;;;;5133529;27;20046;-78
2023/08/13 11:56:17;;;;;;;1.67;1.40;;;25.40;98.10;;;;;;5134249;27;20118;-73
2023/08/13 11:58:43;;;;;;;3.25;1.55;;;25.20;97.90;;;;;;5121341;27;20116;-74
2023/08/13 12:01:13;;;;;;;4.57;1.55;;;25.10;97.90;;;;;;5130063;27;20159;-75
2023/08/13 12:03:41;;;;;;;3.30;1.55;;;24.90;97.70;;;;;;5134888;27;20115;-76
2023/08/13 12:06:08;;;;;;;2.05;1.42;;;24.90;97.90;;;;;;5119876;27;20047;-75
2023/08/13 12:08:34;;;;;;;3.67;1.88;;;24.90;98.20;;;;;;5125401;27;20477;-75
2023/08/13 12:11:00;;;;;;;3.05;1.50;;;25.00;98.20;;;;;;5096155;27;20051;-73
2023/08/13 12:13:28;;;;;;;3.65;1.65;;;25.00;98.00;;;;;;5120029;27;20043;-73
2023/08/13 12:15:54;;;;;;;3.92;1.65;;;25.10;98.10;;;;;;5123301;27;20151;-75
2023/08/13 12:18:20;;;;;;;3.88;1.45;;;25.10;98.00;;;;;;5128726;27;20586;-74
2023/08/13 12:20:45;;;;;;;3.15;1.52;;;25.00;97.90;;;;;;5127363;27;20053;-74
2023/08/13 12:23:11;;;;;;;2.50;1.70;;;25.20;98.10;;;;;;5088617;28;20054;-76
2023/08/13 12:25:37;;;;;;;1.67;1.15;;;24.90;98.10;;;;;;5120503;27;20483;-76
2023/08/13 12:28:03;;;;;;;3.70;2.17;;;25.10;97.90;;;;;;5137639;27;20562;-73
2023/08/13 12:30:29;;;;;;;4.00;1.67;;;25.20;98.10;;;;;;5127662;27;20047;-74
2023/08/13 12:32:55;;;;;;;4.82;1.55;;;25.20;98.00;;;;;;5125431;27;20054;-75
2023/08/13 12:35:21;;;;;;;2.22;1.52;;;25.30;98.30;;;;;;5103067;27;20535;-75
2023/08/13 12:37:47;;;;;;;3.00;1.38;;;25.50;97.60;;;;;;5118383;27;20883;-73
2023/08/13 12:40:14;;;;;;;2.92;1.50;;;25.60;97.80;;;;;;5132111;27;20061;-78
2023/08/13 12:42:40;;;;;;;2.42;1.60;;;25.80;98.00;;;;;;5134521;27;20043;-74
2023/08/13 12:45:06;;;;;;;4.70;1.60;;;25.90;98.00;;;;;;5135054;27;20103;-73
2023/08/13 12:47:36;;;;;;;4.28;1.63;;;25.60;97.40;;;;;;5135826;27;20051;-74